Terminal Aerodrome Forecast
Issued by NWS

Home | Current Version | Previous Version | Text Only | Print | Product List | Glossary On
Versions: 1 2 3 4 5 6 7 8 9 10 11 12 13 14 15 16 17 18 19 20 21
000
FTUS44 KTSA 210520
TAFBVO
TAF
KBVO 210520Z 2106/2206 00000KT P6SM SCT025 BKN250
      TEMPO 2106/2108 BKN025
     FM210800 00000KT 4SM BR BKN015
      TEMPO 2109/2113 2SM BR BKN007
     FM211500 30005KT P6SM SCT250=

USA.gov is the U.S. government's official web portal to all federal, state and local government web resources and services.